Briefing drone pour Nevers (LFQG)

Rechercher une autre localisation

Conditions de vol :


Nous sommes le : Mercredi 23 septembre 2020
Il est 21:58 UTC (23:58 LT)

Lever de soleil : 05:09 UTC (07:09 LT)
Coucher de soleil : 18:09 UTC (20:09 LT)

Météo

L'essentiel des conditions de vol

VIGILANCE MÉTÉO FRANCE - Nièvre (58)
Pas de vigilances particulieres
METAR de LFQG
LFQG 231800Z AUTO 19006KT CAVOK 22/12 Q1005

Date d'émission: 23/09/2020
Heure d'émission: 18:00 UTC
Vent: 190° pour 6 KT (11 km/h)
Visibilité horizontale: > 10 km
Plafond : Plafond et visibilité OK (CAVOK)
Température: 22 °C
Point de rosée: 12 °C
Humidité: 53%
Pression (QNH): 1005 hPa
Prévision 24h pour Nevers
Vent : 257° pour 4 KT (16 km/h)
Temperature Maxi: 14 °C
Temperature Min: 14 °C
Humidité : 79%
Condition : Légère pluie



Warning: count(): Parameter must be an array or an object that implements Countable in /homepages/6/d509196549/htdocs/droneoxygene/briefing.php on line 743
WEBCAM POUR NEVERS

Réglementation

Voler en sécurité

CARTES AERONAUTIQUE 1/500.000
CARTES VAC (LFQG)
SUP AIP




Chargement des AIP...
NOTAM (NEVERS + Terrain à proximité / FIR )




Chargement des NOTAMS...
CONTACT PREFECTURE 58


Avertissement : Les données mises à disposition sont indicatives. Oxygène Drone ne pourra être tenu responsable de dégâts causés aux biens et aux personnes.